createdAt,value
2023-05-17T00:01:00.556Z,46.58
2023-05-17T00:03:27.214Z,46.75
2023-05-17T00:05:54.079Z,46.73
2023-05-17T00:08:21.560Z,46.62
2023-05-17T00:10:48.400Z,46.70
2023-05-17T00:13:15.343Z,46.58
2023-05-17T00:15:42.117Z,46.53
2023-05-17T00:18:08.984Z,46.57
2023-05-17T00:20:36.262Z,46.48
2023-05-17T00:23:03.491Z,46.44
2023-05-17T00:25:30.796Z,46.54
2023-05-17T00:27:57.943Z,46.47
2023-05-17T00:30:24.925Z,46.62
2023-05-17T00:32:52.050Z,46.57
2023-05-17T00:35:19.337Z,46.62
2023-05-17T00:37:47.479Z,46.54
2023-05-17T00:40:15.348Z,46.56
2023-05-17T00:42:42.605Z,46.48
2023-05-17T00:45:10.247Z,46.34
2023-05-17T00:47:37.681Z,46.36
2023-05-17T00:50:05.932Z,46.35
2023-05-17T00:52:32.820Z,46.32
2023-05-17T00:54:59.610Z,46.28
2023-05-17T00:57:28.608Z,46.32
2023-05-17T00:59:55.563Z,46.25
2023-05-17T01:02:24.132Z,46.32
2023-05-17T01:04:51.581Z,46.15
2023-05-17T01:07:19.071Z,46.27
2023-05-17T01:09:47.349Z,46.25
2023-05-17T01:12:40.194Z,46.44
2023-05-17T01:15:22.593Z,46.59
2023-05-17T01:18:08.563Z,46.60
2023-05-17T01:20:40.802Z,46.81
2023-05-17T01:23:26.429Z,46.88
2023-05-17T01:26:13.877Z,46.96
2023-05-17T01:28:40.792Z,47.05
2023-05-17T01:31:08.053Z,47.14
2023-05-17T01:33:37.458Z,47.24
2023-05-17T01:36:05.633Z,47.20
2023-05-17T01:38:32.732Z,47.15
2023-05-17T01:41:21.848Z,47.40
2023-05-17T01:44:02.506Z,47.52
2023-05-17T01:46:39.343Z,47.67
2023-05-17T01:49:10.843Z,47.53
2023-05-17T01:51:45.873Z,47.61
2023-05-17T01:54:12.570Z,47.79
2023-05-17T01:56:43.260Z,47.80
2023-05-17T01:59:10.871Z,47.89
2023-05-17T02:01:39.006Z,47.86
2023-05-17T02:04:06.187Z,48.05
2023-05-17T02:06:33.109Z,47.92
2023-05-17T02:09:02.309Z,48.06
2023-05-17T02:11:29.194Z,48.23
2023-05-17T02:13:56.155Z,48.11
2023-05-17T02:16:23.191Z,48.09
2023-05-17T02:18:50.266Z,48.19
2023-05-17T02:21:17.980Z,48.32
2023-05-17T02:23:45.426Z,48.27
2023-05-17T02:26:12.116Z,48.28
2023-05-17T02:28:39.232Z,48.22
2023-05-17T02:31:08.345Z,48.31
2023-05-17T02:33:35.734Z,48.47
2023-05-17T02:36:04.430Z,48.89
2023-05-17T02:38:31.345Z,48.82
2023-05-17T02:40:58.227Z,49.02
2023-05-17T02:43:25.169Z,49.08
2023-05-17T02:45:52.195Z,49.15
2023-05-17T02:48:19.112Z,49.10
2023-05-17T02:50:46.204Z,49.02
2023-05-17T02:53:13.222Z,49.12
2023-05-17T02:55:40.721Z,49.16
2023-05-17T02:58:07.719Z,49.18
2023-05-17T03:00:35.225Z,49.42
2023-05-17T03:03:02.182Z,49.38
2023-05-17T03:05:29.983Z,49.37
2023-05-17T03:07:57.106Z,49.60
2023-05-17T03:10:24.188Z,49.73
2023-05-17T03:12:51.621Z,49.69
2023-05-17T03:15:21.310Z,49.71
2023-05-17T03:17:48.263Z,49.58
2023-05-17T03:20:16.970Z,49.75
2023-05-17T03:22:45.667Z,50.05
2023-05-17T03:25:12.436Z,50.05
2023-05-17T03:27:40.329Z,49.99
2023-05-17T03:30:08.737Z,49.88
2023-05-17T03:32:39.839Z,49.92
2023-05-17T03:35:07.926Z,49.94
2023-05-17T03:37:35.395Z,50.04
2023-05-17T03:40:02.825Z,49.77
2023-05-17T03:42:30.049Z,50.01
2023-05-17T03:44:57.325Z,50.02
2023-05-17T03:47:24.915Z,50.16
2023-05-17T03:49:51.840Z,50.00
2023-05-17T03:52:18.893Z,50.04
2023-05-17T03:54:48.069Z,50.09
2023-05-17T03:57:16.275Z,49.97
2023-05-17T03:59:43.125Z,50.15
2023-05-17T04:02:10.363Z,50.08
2023-05-17T04:04:37.863Z,50.41
2023-05-17T04:07:06.135Z,50.32
2023-05-17T04:09:34.616Z,50.14
2023-05-17T04:12:01.768Z,50.16
2023-05-17T04:14:28.933Z,49.55
2023-05-17T04:16:56.207Z,49.99
2023-05-17T04:19:23.063Z,50.42
2023-05-17T04:21:51.453Z,49.72
2023-05-17T04:24:19.112Z,49.51
2023-05-17T04:26:46.437Z,49.16
2023-05-17T04:29:13.653Z,48.82
2023-05-17T04:31:40.565Z,48.41
2023-05-17T04:34:07.825Z,48.48
2023-05-17T04:36:35.089Z,48.99
2023-05-17T04:39:03.013Z,48.45
2023-05-17T04:41:31.414Z,48.52
2023-05-17T04:43:58.617Z,48.54
2023-05-17T04:46:30.541Z,48.18
2023-05-17T04:48:57.637Z,47.83
2023-05-17T04:51:24.576Z,47.56
2023-05-17T04:53:52.082Z,46.45
2023-05-17T04:56:19.053Z,46.42
2023-05-17T04:58:46.215Z,46.29
2023-05-17T05:01:13.315Z,45.23
2023-05-17T05:03:43.037Z,45.06
2023-05-17T05:06:11.577Z,45.33
2023-05-17T05:08:38.863Z,45.23
2023-05-17T05:11:07.342Z,45.50
2023-05-17T05:13:34.150Z,45.50
2023-05-17T05:16:01.384Z,45.25
2023-05-17T05:18:28.756Z,44.93
2023-05-17T05:20:56.735Z,45.04
2023-05-17T05:23:24.489Z,44.81
2023-05-17T05:25:51.768Z,44.41
2023-05-17T05:28:19.275Z,44.13
2023-05-17T05:30:46.548Z,43.57
2023-05-17T05:33:13.847Z,43.31
2023-05-17T05:35:40.923Z,43.33
2023-05-17T05:38:07.829Z,43.30
2023-05-17T05:40:35.715Z,42.12
2023-05-17T05:43:02.789Z,40.98
2023-05-17T05:45:29.869Z,40.06
2023-05-17T05:47:59.984Z,39.65
2023-05-17T05:50:30.777Z,39.76
2023-05-17T05:53:17.493Z,38.84
2023-05-17T05:55:49.941Z,38.63
2023-05-17T05:58:17.325Z,38.36
2023-05-17T06:00:44.848Z,37.62
2023-05-17T06:03:11.959Z,38.10
2023-05-17T06:05:39.843Z,37.16
2023-05-17T06:08:07.339Z,36.83
2023-05-17T06:10:34.869Z,36.44
2023-05-17T06:13:01.735Z,35.56
2023-05-17T06:15:30.905Z,35.41
2023-05-17T06:17:58.534Z,34.95
2023-05-17T06:20:25.683Z,34.19
2023-05-17T06:22:53.721Z,33.38
2023-05-17T06:25:20.536Z,32.93
2023-05-17T06:27:50.521Z,32.46
2023-05-17T06:30:17.558Z,33.15
2023-05-17T06:32:44.521Z,33.20
2023-05-17T06:35:11.640Z,33.73
2023-05-17T06:37:38.808Z,33.01
2023-05-17T06:40:16.047Z,32.82
2023-05-17T06:42:44.075Z,32.06
2023-05-17T06:45:11.986Z,32.56
2023-05-17T06:47:41.596Z,32.50
2023-05-17T06:50:09.124Z,31.84
2023-05-17T06:52:36.290Z,32.22
2023-05-17T06:55:03.493Z,32.67
2023-05-17T06:57:31.515Z,32.53
2023-05-17T06:59:58.300Z,31.85
2023-05-17T07:02:25.110Z,31.27
2023-05-17T07:04:52.389Z,31.34
2023-05-17T07:07:19.428Z,29.59
2023-05-17T07:09:46.370Z,29.67
2023-05-17T07:12:13.417Z,29.78
2023-05-17T07:14:40.520Z,29.48
2023-05-17T07:17:07.424Z,29.61
2023-05-17T07:19:34.362Z,30.40
2023-05-17T07:22:01.334Z,30.48
2023-05-17T07:24:28.558Z,30.90
2023-05-17T07:26:55.741Z,31.36
2023-05-17T07:29:22.622Z,32.07
2023-05-17T07:31:50.675Z,32.30
2023-05-17T07:34:18.035Z,32.41
2023-05-17T07:36:45.419Z,32.32
2023-05-17T07:39:12.753Z,32.49
2023-05-17T07:41:39.779Z,32.40
2023-05-17T07:44:06.901Z,32.77
2023-05-17T07:46:33.838Z,33.01
2023-05-17T07:49:00.973Z,32.75
2023-05-17T07:51:28.040Z,32.79
2023-05-17T07:53:54.987Z,32.22
2023-05-17T07:56:21.911Z,31.50
2023-05-17T07:58:48.835Z,30.63
2023-05-17T08:01:15.787Z,30.40
2023-05-17T08:03:47.433Z,30.41
2023-05-17T08:06:17.454Z,30.80
2023-05-17T08:08:47.806Z,30.97
2023-05-17T08:11:14.597Z,31.13
2023-05-17T08:13:41.672Z,31.63
2023-05-17T08:16:14.220Z,31.26
2023-05-17T08:18:42.714Z,30.78
2023-05-17T08:21:10.780Z,30.76
2023-05-17T08:23:37.666Z,30.76
2023-05-17T08:26:04.877Z,30.57
2023-05-17T08:28:34.315Z,30.09
2023-05-17T08:31:03.500Z,29.53
2023-05-17T08:33:30.960Z,29.45
2023-05-17T08:36:00.689Z,29.16
2023-05-17T08:38:27.528Z,29.79
2023-05-17T08:40:55.025Z,29.53
2023-05-17T08:43:25.819Z,29.81
2023-05-17T08:45:57.185Z,30.19
2023-05-17T08:48:30.473Z,30.49
2023-05-17T08:51:00.451Z,31.47
2023-05-17T08:53:27.496Z,31.79
2023-05-17T08:56:00.131Z,31.74
2023-05-17T08:58:34.085Z,31.76
2023-05-17T09:01:06.634Z,32.02
2023-05-17T09:03:34.745Z,31.36
2023-05-17T09:06:02.708Z,30.12
2023-05-17T09:08:32.486Z,30.70
2023-05-17T09:10:59.444Z,30.56
2023-05-17T09:13:27.092Z,30.04
2023-05-17T09:15:53.935Z,29.64
2023-05-17T09:18:32.200Z,29.80
2023-05-17T09:21:06.173Z,29.95
2023-05-17T09:23:33.399Z,30.19
2023-05-17T09:26:05.700Z,30.45
2023-05-17T09:28:52.929Z,30.42
2023-05-17T09:31:19.742Z,31.13
2023-05-17T09:33:51.095Z,31.54
2023-05-17T09:36:22.566Z,31.91
2023-05-17T09:38:59.109Z,31.46
2023-05-17T09:41:30.807Z,31.72
2023-05-17T09:44:01.264Z,31.85
2023-05-17T09:46:32.687Z,32.28
2023-05-17T09:49:01.673Z,32.43
2023-05-17T09:51:54.962Z,32.72
2023-05-17T09:54:22.430Z,32.75
2023-05-17T09:56:55.603Z,32.47
2023-05-17T09:59:22.549Z,32.76
2023-05-17T10:01:49.881Z,32.23
2023-05-17T10:04:19.951Z,31.79
2023-05-17T10:06:51.393Z,31.93
2023-05-17T10:09:21.666Z,32.26
2023-05-17T10:11:48.862Z,32.20
2023-05-17T10:14:26.796Z,31.58
2023-05-17T10:16:53.747Z,31.49
2023-05-17T10:19:21.332Z,32.10
2023-05-17T10:21:50.168Z,32.45
2023-05-17T10:24:17.263Z,32.40
2023-05-17T10:26:44.181Z,32.90
2023-05-17T10:29:11.160Z,32.89
2023-05-17T10:31:38.030Z,32.77
2023-05-17T10:34:06.023Z,32.59
2023-05-17T10:36:33.688Z,32.88
2023-05-17T10:39:01.372Z,32.80
2023-05-17T10:41:34.691Z,32.77
2023-05-17T10:44:03.997Z,33.51
2023-05-17T10:46:31.870Z,33.53
2023-05-17T10:48:59.838Z,33.68
2023-05-17T10:51:33.215Z,33.69
2023-05-17T10:54:17.907Z,33.26
2023-05-17T10:56:52.129Z,33.00
2023-05-17T10:59:24.124Z,33.30
2023-05-17T11:01:54.746Z,33.48
2023-05-17T11:04:25.107Z,33.63
2023-05-17T11:06:54.134Z,34.33
2023-05-17T11:09:22.551Z,33.77
2023-05-17T11:12:09.748Z,33.73
2023-05-17T11:14:46.153Z,32.69
2023-05-17T11:17:19.432Z,31.67
2023-05-17T11:19:56.563Z,31.68
2023-05-17T11:22:27.325Z,32.84
2023-05-17T11:24:56.767Z,32.78
2023-05-17T11:27:30.688Z,32.88
2023-05-17T11:29:59.662Z,32.88
2023-05-17T11:32:31.464Z,33.19
2023-05-17T11:35:01.569Z,33.25
2023-05-17T11:37:29.467Z,33.66
2023-05-17T11:40:04.756Z,33.48
2023-05-17T11:42:32.677Z,33.80
2023-05-17T11:45:02.808Z,33.96
2023-05-17T11:47:33.398Z,34.15
2023-05-17T11:50:01.870Z,34.11
2023-05-17T11:52:29.484Z,33.83
2023-05-17T11:54:57.476Z,34.29
2023-05-17T11:57:29.962Z,33.85
2023-05-17T12:00:00.992Z,33.61
2023-05-17T12:02:32.092Z,33.72
2023-05-17T12:04:59.349Z,33.28
2023-05-17T12:07:26.348Z,32.89
2023-05-17T12:09:53.155Z,33.15
2023-05-17T12:12:21.433Z,33.60
2023-05-17T12:14:48.263Z,33.74
2023-05-17T12:17:27.792Z,33.74
2023-05-17T12:19:55.100Z,33.64
2023-05-17T12:22:22.437Z,33.53
2023-05-17T12:24:49.424Z,33.49
2023-05-17T12:27:25.093Z,34.17
2023-05-17T12:29:52.674Z,33.67
2023-05-17T12:32:19.622Z,34.40
2023-05-17T12:34:47.395Z,34.75
2023-05-17T12:37:14.382Z,34.82
2023-05-17T12:39:41.131Z,35.02
2023-05-17T12:42:08.585Z,35.48
2023-05-17T12:44:37.053Z,35.11
2023-05-17T12:47:03.852Z,34.71
2023-05-17T12:49:31.079Z,34.96
2023-05-17T12:52:02.932Z,35.06
2023-05-17T12:54:30.003Z,35.02
2023-05-17T12:56:56.914Z,35.22
2023-05-17T12:59:28.258Z,35.52
2023-05-17T13:01:55.988Z,35.54
2023-05-17T13:04:37.224Z,35.40
2023-05-17T13:07:04.525Z,35.33
2023-05-17T13:09:32.871Z,35.06
2023-05-17T13:12:01.541Z,34.91
2023-05-17T13:14:45.238Z,35.23
2023-05-17T13:17:17.085Z,35.00
2023-05-17T13:19:44.065Z,34.15
2023-05-17T13:22:11.646Z,34.39
2023-05-17T13:24:39.348Z,34.74
2023-05-17T13:27:06.634Z,35.16
2023-05-17T13:29:39.379Z,35.36
2023-05-17T13:32:08.469Z,35.12
2023-05-17T13:34:35.648Z,34.92
2023-05-17T13:37:02.848Z,34.85
2023-05-17T13:39:29.753Z,34.90
2023-05-17T13:41:56.676Z,34.93
2023-05-17T13:44:23.627Z,35.17
2023-05-17T13:46:50.660Z,34.87
2023-05-17T13:49:17.909Z,35.11
2023-05-17T13:51:45.499Z,35.06
2023-05-17T13:54:12.346Z,35.15
2023-05-17T13:56:39.301Z,34.94
2023-05-17T13:59:06.360Z,34.91
2023-05-17T14:01:33.302Z,35.05
2023-05-17T14:04:00.612Z,35.05
2023-05-17T14:06:27.828Z,35.09
2023-05-17T14:08:55.353Z,35.23
2023-05-17T14:11:22.247Z,35.53
2023-05-17T14:13:49.281Z,35.67
2023-05-17T14:16:16.443Z,35.96
2023-05-17T14:18:43.333Z,35.93
2023-05-17T14:21:11.251Z,35.94
2023-05-17T14:23:38.541Z,36.36
2023-05-17T14:26:07.005Z,36.46
2023-05-17T14:28:37.216Z,36.19
2023-05-17T14:31:05.919Z,35.79
2023-05-17T14:33:33.395Z,36.20
2023-05-17T14:36:00.659Z,36.05
2023-05-17T14:38:27.575Z,36.04
2023-05-17T14:40:54.859Z,36.01
2023-05-17T14:43:22.039Z,35.79
2023-05-17T14:45:48.938Z,35.33
2023-05-17T14:48:16.162Z,35.20
2023-05-17T14:50:43.487Z,35.38
2023-05-17T14:53:10.420Z,35.44
2023-05-17T14:55:37.554Z,35.70
2023-05-17T14:58:04.733Z,35.51
2023-05-17T15:00:31.739Z,35.50
2023-05-17T15:02:58.712Z,35.32
2023-05-17T15:05:25.780Z,34.88
2023-05-17T15:07:52.936Z,34.43
2023-05-17T15:10:19.848Z,33.80
2023-05-17T15:12:47.048Z,34.03
2023-05-17T15:15:13.993Z,33.62
2023-05-17T15:17:41.186Z,33.42
2023-05-17T15:20:10.096Z,32.67
2023-05-17T15:22:37.256Z,32.82
2023-05-17T15:25:05.387Z,33.54
2023-05-17T15:27:32.656Z,33.38
2023-05-17T15:29:59.691Z,33.58
2023-05-17T15:32:26.591Z,33.85
2023-05-17T15:34:53.529Z,34.20
2023-05-17T15:37:20.355Z,34.33
2023-05-17T15:39:47.265Z,34.09
2023-05-17T15:42:14.063Z,33.83
2023-05-17T15:44:40.888Z,34.05
2023-05-17T15:47:07.657Z,34.08
2023-05-17T15:49:35.036Z,34.03
2023-05-17T15:52:02.434Z,33.93
2023-05-17T15:54:29.547Z,33.75
2023-05-17T15:56:56.363Z,34.16
2023-05-17T15:59:23.167Z,34.28
2023-05-17T16:01:50.055Z,34.35
2023-05-17T16:04:17.011Z,34.48
2023-05-17T16:06:44.344Z,34.38
2023-05-17T16:09:11.534Z,34.57
2023-05-17T16:11:38.548Z,34.95
2023-05-17T16:14:05.493Z,34.94
2023-05-17T16:16:32.696Z,34.91
2023-05-17T16:19:00.745Z,34.82
2023-05-17T16:21:27.826Z,34.76
2023-05-17T16:23:54.960Z,34.89
2023-05-17T16:26:21.808Z,35.13
2023-05-17T16:28:48.598Z,35.13
2023-05-17T16:31:15.506Z,35.38
2023-05-17T16:33:42.425Z,35.46
2023-05-17T16:36:11.760Z,35.65
2023-05-17T16:38:38.814Z,35.80
2023-05-17T16:41:05.966Z,35.74
2023-05-17T16:43:33.229Z,35.90
2023-05-17T16:46:00.592Z,36.15
2023-05-17T16:48:28.024Z,36.31
2023-05-17T16:50:56.030Z,36.45
2023-05-17T16:53:23.795Z,36.47
2023-05-17T16:55:50.601Z,36.61
2023-05-17T16:58:17.522Z,36.74
2023-05-17T17:00:44.644Z,37.02
2023-05-17T17:03:11.690Z,36.97
2023-05-17T17:05:38.645Z,37.01
2023-05-17T17:08:06.237Z,37.01
2023-05-17T17:10:35.520Z,36.96
2023-05-17T17:13:02.974Z,36.96
2023-05-17T17:15:30.002Z,37.01
2023-05-17T17:17:57.233Z,37.17
2023-05-17T17:20:24.547Z,37.30
2023-05-17T17:22:51.480Z,37.29
2023-05-17T17:25:18.657Z,37.30
2023-05-17T17:27:46.420Z,37.42
2023-05-17T17:30:13.473Z,37.47
2023-05-17T17:32:41.027Z,37.56
2023-05-17T17:35:08.787Z,37.67
2023-05-17T17:37:35.861Z,37.77
2023-05-17T17:40:03.430Z,37.87
2023-05-17T17:42:32.130Z,38.06
2023-05-17T17:44:59.172Z,38.15
2023-05-17T17:47:26.344Z,38.18
2023-05-17T17:49:53.577Z,38.41
2023-05-17T17:52:20.642Z,38.44
2023-05-17T17:54:47.591Z,38.60
2023-05-17T17:57:14.954Z,38.81
2023-05-17T17:59:41.842Z,38.87
2023-05-17T18:02:08.879Z,39.07
2023-05-17T18:04:35.721Z,39.30
2023-05-17T18:07:02.579Z,39.39
2023-05-17T18:09:29.716Z,39.48
2023-05-17T18:11:56.578Z,39.72
2023-05-17T18:14:23.524Z,39.76
2023-05-17T18:16:50.626Z,39.92
2023-05-17T18:19:17.755Z,40.06
2023-05-17T18:21:44.683Z,40.17
2023-05-17T18:24:12.023Z,40.33
2023-05-17T18:26:38.930Z,40.34
2023-05-17T18:29:05.942Z,40.30
2023-05-17T18:31:32.881Z,40.43
2023-05-17T18:33:59.833Z,40.51
2023-05-17T18:36:27.078Z,40.71
2023-05-17T18:38:58.048Z,40.67
2023-05-17T18:41:25.588Z,40.67
2023-05-17T18:43:52.519Z,40.73
2023-05-17T18:46:19.401Z,40.72
2023-05-17T18:48:46.196Z,40.74
2023-05-17T18:51:15.025Z,40.85
2023-05-17T18:53:41.969Z,41.00
2023-05-17T18:56:08.965Z,41.03
2023-05-17T18:58:36.520Z,41.02
2023-05-17T19:01:03.474Z,41.04
2023-05-17T19:03:30.925Z,41.03
2023-05-17T19:05:58.472Z,41.14
2023-05-17T19:08:25.351Z,41.04
2023-05-17T19:10:52.158Z,41.07
2023-05-17T19:13:19.486Z,41.09
2023-05-17T19:15:46.379Z,41.08
2023-05-17T19:18:13.623Z,41.07
2023-05-17T19:20:40.654Z,41.06
2023-05-17T19:23:12.325Z,41.10
2023-05-17T19:25:40.246Z,41.14
2023-05-17T19:28:08.776Z,41.13
2023-05-17T19:30:37.509Z,41.17
2023-05-17T19:33:06.837Z,41.25
2023-05-17T19:35:35.621Z,41.31
2023-05-17T19:38:02.449Z,41.28
2023-05-17T19:40:29.713Z,41.43
2023-05-17T19:42:57.948Z,41.61
2023-05-17T19:45:24.931Z,41.74
2023-05-17T19:47:52.948Z,41.64
2023-05-17T19:50:20.167Z,41.79
2023-05-17T19:52:47.114Z,41.91
2023-05-17T19:55:15.276Z,41.65
2023-05-17T19:57:42.554Z,41.68
2023-05-17T20:00:10.331Z,41.76
2023-05-17T20:02:37.882Z,41.76
2023-05-17T20:05:05.440Z,41.71
2023-05-17T20:07:32.852Z,41.65
2023-05-17T20:09:59.939Z,41.55
2023-05-17T20:12:27.020Z,41.45
2023-05-17T20:14:54.067Z,41.52
2023-05-17T20:17:20.936Z,41.37
2023-05-17T20:19:47.782Z,41.46
2023-05-17T20:22:14.618Z,41.52
2023-05-17T20:24:43.506Z,41.61
2023-05-17T20:27:11.084Z,41.68
2023-05-17T20:29:38.538Z,41.70
2023-05-17T20:32:05.669Z,41.79
2023-05-17T20:34:33.052Z,41.91
2023-05-17T20:37:00.607Z,42.11
2023-05-17T20:39:27.683Z,42.19
2023-05-17T20:41:55.124Z,42.30
2023-05-17T20:44:23.393Z,42.33
2023-05-17T20:46:50.732Z,42.41
2023-05-17T20:49:17.820Z,42.34
2023-05-17T20:51:44.961Z,42.32
2023-05-17T20:54:11.854Z,42.32
2023-05-17T20:56:39.576Z,42.42
2023-05-17T20:59:06.670Z,42.56
2023-05-17T21:01:33.697Z,42.60
2023-05-17T21:04:01.519Z,42.71
2023-05-17T21:06:32.319Z,42.81
2023-05-17T21:09:01.603Z,42.81
2023-05-17T21:11:29.073Z,42.99
2023-05-17T21:13:57.437Z,43.13
2023-05-17T21:16:24.257Z,43.23
2023-05-17T21:18:51.154Z,43.31
2023-05-17T21:21:18.336Z,43.46
2023-05-17T21:23:45.369Z,43.74
2023-05-17T21:26:12.697Z,43.89
2023-05-17T21:28:39.493Z,44.10
2023-05-17T21:31:06.502Z,44.27
2023-05-17T21:33:33.371Z,44.49
2023-05-17T21:36:00.422Z,44.65
2023-05-17T21:38:27.479Z,44.76
2023-05-17T21:40:55.033Z,44.94
2023-05-17T21:43:22.095Z,45.15
2023-05-17T21:45:49.343Z,45.38
2023-05-17T21:48:16.238Z,45.62
2023-05-17T21:50:43.065Z,45.71
2023-05-17T21:53:10.004Z,45.76
2023-05-17T21:55:56.340Z,45.86
2023-05-17T21:58:26.009Z,46.20
2023-05-17T22:00:53.480Z,46.09
2023-05-17T22:03:20.985Z,46.24
2023-05-17T22:05:48.718Z,46.24
2023-05-17T22:08:15.450Z,46.27
2023-05-17T22:10:43.110Z,46.17
2023-05-17T22:13:11.700Z,46.26
2023-05-17T22:15:38.507Z,46.17
2023-05-17T22:18:05.458Z,46.16
2023-05-17T22:20:32.574Z,46.19
2023-05-17T22:22:59.820Z,46.13
2023-05-17T22:25:26.496Z,46.15
2023-05-17T22:27:53.368Z,46.07
2023-05-17T22:30:20.196Z,46.14
2023-05-17T22:32:47.402Z,46.12
2023-05-17T22:35:14.455Z,46.20
2023-05-17T22:37:42.021Z,46.20
2023-05-17T22:40:10.207Z,46.18
2023-05-17T22:42:37.031Z,46.21
2023-05-17T22:45:04.444Z,46.08
2023-05-17T22:47:31.470Z,46.18
2023-05-17T22:50:00.266Z,46.11
2023-05-17T22:52:27.418Z,46.22
2023-05-17T22:54:54.471Z,46.30
2023-05-17T22:57:21.325Z,46.29
2023-05-17T22:59:48.200Z,46.40
2023-05-17T23:02:15.217Z,46.44
2023-05-17T23:04:45.342Z,46.53
2023-05-17T23:07:12.243Z,46.56
2023-05-17T23:09:39.959Z,46.50
2023-05-17T23:12:08.346Z,46.57
2023-05-17T23:14:36.124Z,46.53
2023-05-17T23:17:03.793Z,46.63
2023-05-17T23:19:32.390Z,46.72
2023-05-17T23:22:02.477Z,47.28
2023-05-17T23:24:29.612Z,47.07
2023-05-17T23:26:57.101Z,46.96
2023-05-17T23:29:25.592Z,46.88
2023-05-17T23:31:52.817Z,46.93
2023-05-17T23:34:20.409Z,46.99
2023-05-17T23:36:47.264Z,46.95
2023-05-17T23:39:15.264Z,47.11
2023-05-17T23:41:42.380Z,47.10
2023-05-17T23:44:09.446Z,47.07
2023-05-17T23:46:36.693Z,47.20
2023-05-17T23:49:03.934Z,47.33
2023-05-17T23:51:34.081Z,47.64
2023-05-17T23:54:01.140Z,47.38
2023-05-17T23:56:27.992Z,47.25
2023-05-17T23:58:54.910Z,47.31
